Time;durP1;ratioP1;P1;durP2;ratioP2;P2;SDS_P1;SDS_P2;PMS_P1;PMS_P2;Temp;Humidity;BMP_temperature;BMP_pressure;BME280_temperature;BME280_humidity;BME280_pressure;Samples;Min_cycle;Max_cycle;Signal;HPM_P1;HPM_P2
2022/04/09 00:00:56;;;;;;;3.78;1.63;;;19.80;55.40;;;;;;4983360;28;87865;-80
2022/04/09 00:03:22;;;;;;;1.70;1.10;;;19.80;55.20;;;;;;4989330;28;87845;-83
2022/04/09 00:05:47;;;;;;;2.78;1.15;;;19.80;55.20;;;;;;4976861;28;87098;-81
2022/04/09 00:08:14;;;;;;;1.52;1.20;;;19.80;55.20;;;;;;4980007;28;87657;-83
2022/04/09 00:10:40;;;;;;;1.95;1.30;;;19.80;55.40;;;;;;5006669;28;90166;-84
2022/04/09 00:13:05;;;;;;;1.65;1.17;;;19.80;55.20;;;;;;4982790;28;87114;-83
2022/04/09 00:15:31;;;;;;;2.22;1.40;;;19.70;55.20;;;;;;4981501;28;86903;-84
2022/04/09 00:17:57;;;;;;;2.22;1.30;;;19.70;55.10;;;;;;4983610;28;88603;-84
2022/04/09 00:20:22;;;;;;;2.65;1.30;;;19.70;55.00;;;;;;4984906;28;88744;-83
2022/04/09 00:22:48;;;;;;;2.60;1.40;;;19.70;55.10;;;;;;4983922;28;87071;-84
2022/04/09 00:25:21;;;;;;;2.88;1.20;;;19.70;55.00;;;;;;4981302;28;87718;-83
2022/04/09 00:27:53;;;;;;;3.42;1.75;;;19.70;55.10;;;;;;4977483;28;87671;-80
2022/04/09 00:30:20;;;;;;;1.90;1.25;;;19.70;55.10;;;;;;4982106;28;88404;-81
2022/04/09 00:32:45;;;;;;;2.42;1.60;;;19.70;55.00;;;;;;4984303;28;87052;-83
2022/04/09 00:35:11;;;;;;;2.60;1.40;;;19.70;55.60;;;;;;5002011;28;89535;-84
2022/04/09 00:37:42;;;;;;;3.53;1.48;;;19.70;55.00;;;;;;4988850;28;88048;-84
2022/04/09 00:40:08;;;;;;;2.17;1.15;;;19.70;55.00;;;;;;4988158;28;88918;-83
2022/04/09 00:42:33;;;;;;;2.08;1.27;;;19.70;55.10;;;;;;4986996;28;88344;-81
2022/04/09 00:44:59;;;;;;;1.90;1.17;;;19.70;55.00;;;;;;4986433;28;87389;-82
2022/04/09 00:47:24;;;;;;;2.25;1.25;;;19.70;54.70;;;;;;4983499;28;87741;-82
2022/04/09 00:49:50;;;;;;;2.22;1.30;;;19.60;54.60;;;;;;4986327;28;87473;-81
2022/04/09 00:52:18;;;;;;;1.95;1.15;;;19.60;54.80;;;;;;4986893;28;87315;-84
2022/04/09 00:54:45;;;;;;;1.55;0.95;;;19.60;54.50;;;;;;4983301;28;87848;-80
2022/04/09 00:57:14;;;;;;;3.08;1.77;;;19.60;54.60;;;;;;4997114;28;89571;-81
2022/04/09 00:59:44;;;;;;;1.65;1.02;;;19.60;54.60;;;;;;4987657;28;87224;-83
2022/04/09 01:02:20;;;;;;;2.38;1.20;;;19.60;54.60;;;;;;4984747;28;87940;-84
2022/04/09 01:04:48;;;;;;;4.32;1.55;;;19.60;54.70;;;;;;4986576;28;87530;-82
2022/04/09 01:07:14;;;;;;;2.42;1.20;;;19.60;54.70;;;;;;4982398;28;88206;-81
2022/04/09 01:09:41;;;;;;;2.35;1.55;;;19.60;54.60;;;;;;4990954;28;88261;-83
2022/04/09 01:12:07;;;;;;;2.45;1.30;;;19.60;54.50;;;;;;4985603;28;87547;-83
2022/04/09 01:14:35;;;;;;;2.95;1.50;;;19.60;54.60;;;;;;4983264;28;87555;-82
2022/04/09 01:17:01;;;;;;;2.45;1.23;;;19.60;54.60;;;;;;4990761;28;87309;-83
2022/04/09 01:19:27;;;;;;;2.97;1.30;;;19.60;54.50;;;;;;4976629;28;87139;-83
2022/04/09 01:21:57;;;;;;;2.40;1.40;;;19.60;54.30;;;;;;4979200;28;87834;-82
2022/04/09 01:24:23;;;;;;;2.72;1.63;;;19.60;54.30;;;;;;4981025;28;87787;-80
2022/04/09 01:26:49;;;;;;;3.83;1.27;;;19.50;54.40;;;;;;4984434;28;87644;-82
2022/04/09 01:29:14;;;;;;;2.55;1.50;;;19.50;54.20;;;;;;4983612;28;88358;-82
2022/04/09 01:31:40;;;;;;;1.75;1.13;;;19.50;54.20;;;;;;4983863;28;88502;-81
2022/04/09 01:34:07;;;;;;;1.98;1.17;;;19.50;54.20;;;;;;4981797;28;86985;-82
2022/04/09 01:36:32;;;;;;;3.13;1.35;;;19.50;54.20;;;;;;4990674;28;88219;-81
2022/04/09 01:38:58;;;;;;;2.22;1.30;;;19.50;54.10;;;;;;4990696;28;90060;-80
2022/04/09 01:41:24;;;;;;;2.40;1.48;;;19.50;54.00;;;;;;4980000;28;87635;-82
2022/04/09 01:44:01;;;;;;;2.85;1.55;;;19.50;54.00;;;;;;4988551;28;87403;-81
2022/04/09 01:46:26;;;;;;;2.10;1.10;;;19.50;54.00;;;;;;4982848;28;88181;-81
2022/04/09 01:48:52;;;;;;;2.00;1.17;;;19.50;54.00;;;;;;4983903;28;90006;-80
2022/04/09 01:51:17;;;;;;;2.75;1.40;;;19.50;54.10;;;;;;4980703;28;87788;-82
2022/04/09 01:53:43;;;;;;;2.25;1.05;;;19.50;53.90;;;;;;4980599;28;87592;-83
2022/04/09 01:56:08;;;;;;;2.25;1.20;;;19.50;54.00;;;;;;4989071;28;91342;-80
2022/04/09 01:58:34;;;;;;;2.45;1.45;;;19.50;53.90;;;;;;4983785;28;88273;-83
2022/04/09 02:01:00;;;;;;;2.60;1.27;;;19.50;53.80;;;;;;4984340;28;87756;-83
2022/04/09 02:03:26;;;;;;;3.05;1.30;;;19.50;53.80;;;;;;4987845;28;87681;-80
2022/04/09 02:05:52;;;;;;;2.20;1.20;;;19.50;53.80;;;;;;4982081;28;87501;-82
2022/04/09 02:08:18;;;;;;;1.45;1.25;;;19.40;53.70;;;;;;4979808;28;87809;-82
2022/04/09 02:10:43;;;;;;;3.85;1.95;;;19.40;53.80;;;;;;4981878;28;87765;-81
2022/04/09 02:13:13;;;;;;;2.10;1.50;;;19.40;53.80;;;;;;4979844;28;86685;-83
2022/04/09 02:15:39;;;;;;;2.33;1.33;;;19.40;54.60;;;;;;4981672;28;87904;-84
2022/04/09 02:18:05;;;;;;;1.27;1.02;;;19.40;53.80;;;;;;4984008;28;87779;-82
2022/04/09 02:20:32;;;;;;;3.10;1.45;;;19.40;53.60;;;;;;4983561;28;88163;-82
2022/04/09 02:22:59;;;;;;;1.85;1.38;;;19.40;53.50;;;;;;4980300;28;87155;-82
2022/04/09 02:25:28;;;;;;;2.00;1.20;;;19.40;53.60;;;;;;4986150;28;87667;-80
2022/04/09 02:27:53;;;;;;;2.00;1.30;;;19.40;53.70;;;;;;4984753;28;87960;-81
2022/04/09 02:30:19;;;;;;;1.90;1.05;;;19.40;53.60;;;;;;4985995;28;87731;-83
2022/04/09 02:32:52;;;;;;;2.08;1.02;;;19.40;53.60;;;;;;4986167;28;87135;-81
2022/04/09 02:35:19;;;;;;;2.25;1.23;;;19.40;53.60;;;;;;4985592;28;87828;-83
2022/04/09 02:37:45;;;;;;;1.85;1.27;;;19.40;53.50;;;;;;4983824;28;87974;-83
2022/04/09 02:40:12;;;;;;;3.05;1.52;;;19.40;53.60;;;;;;4984017;28;87331;-83
2022/04/09 02:42:41;;;;;;;1.17;1.00;;;19.40;53.40;;;;;;4984914;28;87505;-81
2022/04/09 02:45:11;;;;;;;2.80;1.45;;;19.30;53.50;;;;;;4982834;28;88671;-84
2022/04/09 02:47:37;;;;;;;1.92;1.00;;;19.30;53.30;;;;;;4990891;28;90565;-81
2022/04/09 02:50:04;;;;;;;2.00;1.52;;;19.30;53.40;;;;;;4982900;28;87552;-83
2022/04/09 02:52:45;;;;;;;2.58;1.48;;;19.40;53.50;;;;;;4981018;28;87788;-81
2022/04/09 02:55:13;;;;;;;2.50;1.35;;;19.30;53.60;;;;;;4978739;28;87799;-81
2022/04/09 02:57:40;;;;;;;2.03;1.17;;;19.30;53.50;;;;;;4977607;28;87742;-83
2022/04/09 03:00:11;;;;;;;2.72;1.23;;;19.30;53.40;;;;;;4987123;28;86954;-83
2022/04/09 03:02:38;;;;;;;1.58;1.15;;;19.40;53.40;;;;;;4981271;28;86232;-82
2022/04/09 03:05:05;;;;;;;1.65;1.05;;;19.30;53.40;;;;;;4983667;28;87897;-80
2022/04/09 03:07:31;;;;;;;1.75;0.98;;;19.30;54.00;;;;;;4981463;28;89149;-80
2022/04/09 03:09:56;;;;;;;1.83;1.40;;;19.30;53.20;;;;;;4977431;28;88018;-80
2022/04/09 03:12:22;;;;;;;2.25;1.10;;;19.30;53.30;;;;;;4980119;28;87813;-82
2022/04/09 03:14:47;;;;;;;1.73;1.00;;;19.30;53.20;;;;;;4978575;28;88943;-80
2022/04/09 03:17:13;;;;;;;2.50;1.20;;;19.30;53.30;;;;;;4983048;28;88059;-82
2022/04/09 03:19:39;;;;;;;2.30;1.20;;;19.30;53.20;;;;;;4979605;28;87206;-82
2022/04/09 03:22:05;;;;;;;1.67;1.15;;;19.30;53.20;;;;;;4978329;28;87516;-83
2022/04/09 03:24:31;;;;;;;2.92;1.30;;;19.20;53.10;;;;;;4979008;28;87601;-80
2022/04/09 03:26:56;;;;;;;3.10;1.13;;;19.20;53.20;;;;;;4983523;28;86711;-81
2022/04/09 03:29:22;;;;;;;2.78;1.48;;;19.30;53.10;;;;;;4983388;28;87801;-81
2022/04/09 03:31:48;;;;;;;2.38;1.20;;;19.20;53.10;;;;;;4984321;28;88022;-83
2022/04/09 03:34:13;;;;;;;2.47;1.33;;;19.30;53.10;;;;;;4983060;28;88936;-82
2022/04/09 03:36:39;;;;;;;4.80;2.00;;;19.20;52.90;;;;;;4981800;28;87519;-82
2022/04/09 03:39:13;;;;;;;2.63;1.15;;;19.30;53.00;;;;;;4990215;28;87712;-81
2022/04/09 03:41:40;;;;;;;1.85;1.23;;;19.20;53.00;;;;;;4986350;28;87830;-83
2022/04/09 03:44:06;;;;;;;1.38;1.10;;;19.20;53.00;;;;;;4981375;28;88027;-82
2022/04/09 03:46:31;;;;;;;2.42;1.33;;;19.20;52.90;;;;;;4978515;28;87778;-81
2022/04/09 03:48:57;;;;;;;1.70;1.05;;;19.20;53.10;;;;;;4975750;28;87187;-81
2022/04/09 03:51:23;;;;;;;2.40;1.00;;;19.20;53.00;;;;;;4994325;28;89190;-81
2022/04/09 03:53:48;;;;;;;1.48;1.17;;;19.20;52.90;;;;;;4979532;28;87966;-81
2022/04/09 03:56:14;;;;;;;2.20;1.13;;;19.20;53.00;;;;;;4984088;28;87966;-81
2022/04/09 03:58:40;;;;;;;2.30;1.30;;;19.20;52.90;;;;;;4980154;28;88968;-81
2022/04/09 04:01:05;;;;;;;1.40;1.00;;;19.20;52.90;;;;;;4979001;28;87411;-82
2022/04/09 04:03:33;;;;;;;1.33;1.23;;;19.20;53.00;;;;;;4986485;28;87776;-83
2022/04/09 04:05:59;;;;;;;2.55;1.52;;;19.20;53.10;;;;;;4981145;28;88477;-80
2022/04/09 04:08:24;;;;;;;4.32;1.20;;;19.20;52.90;;;;;;4981403;28;87764;-80
2022/04/09 04:10:50;;;;;;;2.20;1.20;;;19.20;52.90;;;;;;4989273;28;87741;-81
2022/04/09 04:13:16;;;;;;;2.55;1.10;;;19.10;52.80;;;;;;4978171;28;88141;-82
2022/04/09 04:15:42;;;;;;;2.75;1.20;;;19.10;52.90;;;;;;4988068;28;90434;-81
2022/04/09 04:18:08;;;;;;;1.60;1.02;;;19.10;52.70;;;;;;4982478;28;87869;-81
2022/04/09 04:20:34;;;;;;;2.47;1.08;;;19.10;52.70;;;;;;4979359;28;87428;-81
2022/04/09 04:23:03;;;;;;;3.60;1.42;;;19.10;52.80;;;;;;4983537;28;88335;-79
2022/04/09 04:25:36;;;;;;;4.38;1.58;;;19.10;52.70;;;;;;4990151;28;88460;-84
2022/04/09 04:28:02;;;;;;;4.68;1.35;;;19.10;52.70;;;;;;4978066;28;86932;-81
2022/04/09 04:30:27;;;;;;;2.00;1.17;;;19.10;52.50;;;;;;4977896;28;87329;-81
2022/04/09 04:32:53;;;;;;;2.58;1.30;;;19.10;52.80;;;;;;4977593;28;87487;-82
2022/04/09 04:35:19;;;;;;;2.05;1.13;;;19.10;52.80;;;;;;4977881;28;87853;-83
2022/04/09 04:37:47;;;;;;;2.25;1.30;;;19.10;52.90;;;;;;4983691;28;87895;-80
2022/04/09 04:40:15;;;;;;;1.85;1.40;;;19.10;52.80;;;;;;4981994;28;87636;-82
2022/04/09 04:42:41;;;;;;;2.17;1.27;;;19.10;52.70;;;;;;4987298;28;89813;-82
2022/04/09 04:45:07;;;;;;;1.88;1.00;;;19.10;52.90;;;;;;4981751;28;88164;-80
2022/04/09 04:47:41;;;;;;;3.58;1.30;;;19.10;52.80;;;;;;4985820;28;89462;-80
2022/04/09 04:50:07;;;;;;;1.67;1.30;;;19.00;52.60;;;;;;4980798;28;87668;-81
2022/04/09 04:52:32;;;;;;;2.17;1.30;;;19.00;52.50;;;;;;4982324;28;87617;-80
2022/04/09 04:54:58;;;;;;;4.43;1.40;;;19.00;52.70;;;;;;4984084;28;87928;-81
2022/04/09 04:57:24;;;;;;;3.70;1.27;;;19.00;52.70;;;;;;4978649;28;87981;-79
2022/04/09 04:59:52;;;;;;;1.60;1.33;;;19.00;52.60;;;;;;4980155;28;86877;-81
2022/04/09 05:02:17;;;;;;;2.50;1.35;;;19.00;52.70;;;;;;4986515;28;89062;-81
2022/04/09 05:04:45;;;;;;;2.95;1.52;;;19.00;52.20;;;;;;4985484;28;87188;-81
2022/04/09 05:07:11;;;;;;;2.88;1.30;;;19.00;52.40;;;;;;4978244;28;87644;-81
2022/04/09 05:09:36;;;;;;;2.72;1.30;;;19.00;52.50;;;;;;4981665;28;88281;-80
2022/04/09 05:12:02;;;;;;;2.33;1.30;;;19.00;52.60;;;;;;4978220;28;88718;-81
2022/04/09 05:14:28;;;;;;;1.88;1.27;;;19.00;52.60;;;;;;4983374;28;91153;-80
2022/04/09 05:16:53;;;;;;;1.60;1.15;;;19.00;52.50;;;;;;4985273;28;87742;-81
2022/04/09 05:19:19;;;;;;;1.67;1.20;;;19.00;52.50;;;;;;4985871;28;87341;-81
2022/04/09 05:21:47;;;;;;;2.58;1.10;;;19.00;52.60;;;;;;4987587;28;87668;-81
2022/04/09 05:24:13;;;;;;;3.30;1.45;;;19.00;52.50;;;;;;4989642;28;87803;-81
2022/04/09 05:26:39;;;;;;;2.22;1.30;;;19.00;52.50;;;;;;4988888;28;86950;-80
2022/04/09 05:29:05;;;;;;;2.17;0.95;;;19.00;52.40;;;;;;4986696;28;86575;-81
2022/04/09 05:31:31;;;;;;;2.80;1.15;;;19.00;52.30;;;;;;5001002;28;87581;-80
2022/04/09 05:33:57;;;;;;;1.25;1.00;;;19.00;52.30;;;;;;4985083;28;87401;-80
2022/04/09 05:36:23;;;;;;;2.65;1.15;;;19.00;52.40;;;;;;4984515;28;87990;-80
2022/04/09 05:38:49;;;;;;;2.67;1.10;;;19.00;52.30;;;;;;4978274;28;87242;-82
2022/04/09 05:41:15;;;;;;;2.58;1.15;;;18.90;52.30;;;;;;4986533;28;87568;-80
2022/04/09 05:43:40;;;;;;;2.35;1.10;;;19.00;52.30;;;;;;4983292;28;88407;-81
2022/04/09 05:46:06;;;;;;;1.92;1.20;;;19.00;52.30;;;;;;4979933;28;87903;-80
2022/04/09 05:48:35;;;;;;;2.17;1.33;;;19.00;52.40;;;;;;4999362;28;87902;-81
2022/04/09 05:51:03;;;;;;;2.60;1.30;;;18.90;52.30;;;;;;4987921;28;87860;-81
2022/04/09 05:53:29;;;;;;;2.85;1.27;;;19.00;52.20;;;;;;4987270;28;87152;-80
2022/04/09 05:55:55;;;;;;;2.28;1.58;;;18.90;52.00;;;;;;4981384;28;87686;-80
2022/04/09 05:58:20;;;;;;;2.30;1.15;;;19.00;52.10;;;;;;4984717;28;87832;-79
2022/04/09 06:00:46;;;;;;;2.08;1.10;;;19.00;52.10;;;;;;4976673;28;88869;-79
2022/04/09 06:03:12;;;;;;;2.90;1.20;;;19.00;52.20;;;;;;4987122;28;87203;-81
2022/04/09 06:05:37;;;;;;;2.47;1.23;;;19.00;52.00;;;;;;4983980;28;87577;-79
2022/04/09 06:08:03;;;;;;;3.15;1.40;;;19.00;52.20;;;;;;4979674;28;87652;-80
2022/04/09 06:10:29;;;;;;;2.42;1.45;;;19.00;52.20;;;;;;4980641;28;88120;-80
2022/04/09 06:12:54;;;;;;;2.15;1.02;;;19.00;51.90;;;;;;4986041;28;87658;-81
2022/04/09 06:15:22;;;;;;;2.75;1.55;;;19.00;51.90;;;;;;4984572;28;87420;-81
2022/04/09 06:17:48;;;;;;;3.08;1.33;;;19.00;52.00;;;;;;4981335;28;87187;-82
2022/04/09 06:20:13;;;;;;;2.75;1.40;;;19.00;51.90;;;;;;4989912;28;88059;-79
2022/04/09 06:22:39;;;;;;;4.07;1.40;;;19.00;52.00;;;;;;4984368;28;87390;-83
2022/04/09 06:25:05;;;;;;;3.22;1.65;;;19.00;51.90;;;;;;4977784;28;88902;-82
2022/04/09 06:27:33;;;;;;;2.42;1.30;;;19.00;51.90;;;;;;4976667;28;89627;-79
2022/04/09 06:29:58;;;;;;;2.85;1.20;;;19.00;51.90;;;;;;4998918;28;89713;-79
2022/04/09 06:32:24;;;;;;;2.25;1.38;;;19.00;51.90;;;;;;4976942;28;87419;-80
2022/04/09 06:35:07;;;;;;;2.75;1.33;;;19.00;51.90;;;;;;4983864;28;87641;-80
2022/04/09 06:37:36;;;;;;;4.00;1.38;;;19.00;51.70;;;;;;4986903;28;88396;-81
2022/04/09 06:40:02;;;;;;;3.20;1.30;;;19.00;51.80;;;;;;4984906;28;88703;-80
2022/04/09 06:42:28;;;;;;;4.47;1.67;;;19.10;52.00;;;;;;4990914;28;88833;-79
2022/04/09 06:44:53;;;;;;;2.72;1.40;;;19.00;51.80;;;;;;4980407;28;87292;-79
2022/04/09 06:47:19;;;;;;;2.78;1.23;;;19.00;50.50;;;;;;4981629;28;88026;-80
2022/04/09 06:49:45;;;;;;;2.65;1.30;;;19.00;51.60;;;;;;4976532;28;88628;-79
2022/04/09 06:52:10;;;;;;;2.25;1.02;;;19.00;51.70;;;;;;4979713;28;88761;-79
2022/04/09 06:54:36;;;;;;;3.85;1.75;;;19.00;51.70;;;;;;4984346;28;87503;-80
2022/04/09 06:57:01;;;;;;;5.80;1.50;;;19.00;52.00;;;;;;4983817;28;87778;-81
2022/04/09 06:59:27;;;;;;;2.10;1.40;;;19.00;52.40;;;;;;4983180;28;88107;-80
2022/04/09 07:01:53;;;;;;;10.18;2.10;;;19.00;52.60;;;;;;4981570;28;87873;-80
2022/04/09 07:04:18;;;;;;;5.32;2.10;;;19.00;53.60;;;;;;4985756;28;87486;-83
2022/04/09 07:06:46;;;;;;;4.20;1.67;;;19.10;54.50;;;;;;4988607;28;88687;-82
2022/04/09 07:09:16;;;;;;;5.50;1.60;;;19.20;54.70;;;;;;4980612;28;88000;-82
2022/04/09 07:11:44;;;;;;;7.70;1.63;;;19.20;54.30;;;;;;4982366;28;87728;-81
2022/04/09 07:14:09;;;;;;;15.35;1.60;;;19.30;53.90;;;;;;4983645;28;88684;-83
2022/04/09 07:16:35;;;;;;;7.90;2.00;;;19.40;53.60;;;;;;4987229;28;86898;-83
2022/04/09 07:19:01;;;;;;;6.15;1.80;;;19.40;54.00;;;;;;4977774;28;87655;-83
2022/04/09 07:21:27;;;;;;;4.50;1.50;;;19.50;53.70;;;;;;4985945;28;88014;-85
2022/04/09 07:23:53;;;;;;;3.10;1.70;;;19.50;53.40;;;;;;4985893;28;87296;-84
2022/04/09 07:26:20;;;;;;;4.65;2.00;;;19.60;54.20;;;;;;4988849;28;88258;-83
2022/04/09 07:28:46;;;;;;;4.25;1.58;;;19.60;53.90;;;;;;4977583;28;87564;-81
2022/04/09 07:31:12;;;;;;;7.43;2.10;;;19.60;53.30;;;;;;4980893;28;87449;-84
2022/04/09 07:33:38;;;;;;;6.80;1.77;;;19.60;53.20;;;;;;4978475;28;87427;-83
2022/04/09 07:36:04;;;;;;;6.57;1.83;;;19.60;52.70;;;;;;4981974;28;87301;-81
2022/04/09 07:38:30;;;;;;;4.60;1.85;;;19.60;53.30;;;;;;4988057;28;91439;-82
2022/04/09 07:40:56;;;;;;;4.20;1.52;;;19.70;54.00;;;;;;4985477;28;87738;-83
2022/04/09 07:43:21;;;;;;;7.00;2.20;;;19.70;53.40;;;;;;4983434;28;87501;-85
2022/04/09 07:45:47;;;;;;;12.57;2.05;;;19.70;53.20;;;;;;4979496;28;87704;-80
2022/04/09 07:48:13;;;;;;;5.13;1.50;;;19.70;53.90;;;;;;4983448;28;88398;-83
2022/04/09 07:50:39;;;;;;;9.50;2.47;;;19.70;54.20;;;;;;4985017;28;87885;-84
2022/04/09 07:53:05;;;;;;;7.00;2.17;;;19.80;53.80;;;;;;4979239;28;87887;-82
2022/04/09 07:55:48;;;;;;;3.88;1.48;;;19.80;54.30;;;;;;4981336;28;87015;-84
2022/04/09 07:58:14;;;;;;;5.22;1.50;;;19.80;54.30;;;;;;4978395;28;88234;-83
2022/04/09 08:00:40;;;;;;;6.15;1.95;;;19.90;54.50;;;;;;4985904;28;87653;-82
2022/04/09 08:03:08;;;;;;;7.85;2.15;;;19.90;54.50;;;;;;4979580;28;88885;-81
2022/04/09 08:05:34;;;;;;;6.53;1.88;;;19.90;54.40;;;;;;4979636;28;88739;-80
2022/04/09 08:08:01;;;;;;;6.03;1.85;;;19.90;54.30;;;;;;4980213;28;88029;-80
2022/04/09 08:10:26;;;;;;;13.73;2.30;;;19.90;54.30;;;;;;4979739;28;88049;-81
2022/04/09 08:12:53;;;;;;;17.23;3.33;;;19.90;54.00;;;;;;4980000;28;87449;-80
2022/04/09 08:15:19;;;;;;;14.48;2.45;;;19.90;53.50;;;;;;4985836;28;86965;-80
2022/04/09 08:17:45;;;;;;;12.90;2.55;;;20.00;53.50;;;;;;4981680;28;86850;-81
2022/04/09 08:20:13;;;;;;;14.45;2.67;;;20.00;53.60;;;;;;4986164;28;87384;-80
2022/04/09 08:22:40;;;;;;;8.00;2.70;;;19.90;53.60;;;;;;4978040;28;87911;-79
2022/04/09 08:25:06;;;;;;;18.13;3.33;;;20.00;53.40;;;;;;4980561;28;88007;-80
2022/04/09 08:27:35;;;;;;;13.52;3.70;;;20.00;53.40;;;;;;4980101;28;88674;-80
2022/04/09 08:30:06;;;;;;;21.13;3.72;;;19.90;53.10;;;;;;4999659;28;89748;-81
2022/04/09 08:32:32;;;;;;;16.05;4.00;;;20.00;53.00;;;;;;4989992;28;88162;-82
2022/04/09 08:34:58;;;;;;;8.68;2.28;;;19.90;53.20;;;;;;4977987;28;87423;-82
2022/04/09 08:37:24;;;;;;;14.50;3.40;;;19.90;54.00;;;;;;4985656;28;88381;-80
2022/04/09 08:39:54;;;;;;;24.90;5.03;;;20.00;53.50;;;;;;4979632;28;87656;-80
2022/04/09 08:42:21;;;;;;;20.05;4.60;;;19.90;53.40;;;;;;4976637;28;87549;-79
2022/04/09 08:44:48;;;;;;;23.90;4.57;;;19.90;53.00;;;;;;4987588;28;87258;-79
2022/04/09 08:47:14;;;;;;;72.75;17.38;;;19.90;53.30;;;;;;4982793;28;87756;-80
2022/04/09 08:49:46;;;;;;;80.18;20.48;;;19.90;54.10;;;;;;4984697;28;87590;-81
2022/04/09 08:52:12;;;;;;;83.05;19.42;;;20.00;53.40;;;;;;4990266;28;88517;-80
2022/04/09 08:54:38;;;;;;;107.47;25.42;;;20.00;53.10;;;;;;4982236;28;87250;-79
2022/04/09 08:57:05;;;;;;;140.30;33.92;;;19.90;53.80;;;;;;4979716;28;87817;-79
2022/04/09 08:59:31;;;;;;;138.23;34.92;;;20.00;55.60;;;;;;4982125;28;87662;-80
2022/04/09 09:01:57;;;;;;;137.82;33.65;;;20.00;55.00;;;;;;4986876;28;87786;-81
2022/04/09 09:04:23;;;;;;;133.07;33.50;;;20.00;54.90;;;;;;4984919;28;87205;-79
2022/04/09 09:06:56;;;;;;;139.40;31.60;;;20.00;55.40;;;;;;4983464;28;87693;-82
2022/04/09 09:09:32;;;;;;;141.48;32.95;;;20.00;55.90;;;;;;4979318;28;86449;-81
2022/04/09 09:12:00;;;;;;;108.95;29.48;;;20.00;55.60;;;;;;4985472;28;88062;-80
2022/04/09 09:14:32;;;;;;;109.97;29.45;;;20.10;55.50;;;;;;4987035;28;88280;-79
2022/04/09 09:16:58;;;;;;;126.40;30.08;;;20.10;55.00;;;;;;4981472;28;89019;-79
2022/04/09 09:19:48;;;;;;;114.63;28.63;;;20.00;55.70;;;;;;4978867;28;88595;-80
2022/04/09 09:22:15;;;;;;;110.60;28.70;;;20.00;56.00;;;;;;4980559;28;87574;-80
2022/04/09 09:24:41;;;;;;;102.82;26.15;;;20.10;56.80;;;;;;4990488;28;88162;-82
2022/04/09 09:27:07;;;;;;;105.72;27.50;;;20.10;57.30;;;;;;4982682;28;88508;-80
2022/04/09 09:29:35;;;;;;;99.90;27.92;;;20.10;57.50;;;;;;4987633;28;90007;-79
2022/04/09 09:32:03;;;;;;;100.55;27.48;;;20.10;57.60;;;;;;4984670;28;87781;-82
2022/04/09 09:34:30;;;;;;;85.97;24.70;;;20.20;56.90;;;;;;4983322;28;87162;-80
2022/04/09 09:36:56;;;;;;;87.80;23.88;;;20.20;56.80;;;;;;4979400;28;87483;-80
2022/04/09 09:39:23;;;;;;;87.00;23.13;;;20.20;57.20;;;;;;4982031;28;87562;-79
2022/04/09 09:41:57;;;;;;;92.40;23.25;;;20.20;57.00;;;;;;4984063;28;88939;-81
2022/04/09 09:44:25;;;;;;;66.35;19.90;;;20.20;57.00;;;;;;4985210;28;88563;-80
2022/04/09 09:46:53;;;;;;;77.47;21.15;;;20.30;57.80;;;;;;4985281;28;87536;-80
2022/04/09 09:49:22;;;;;;;75.70;21.33;;;20.30;56.10;;;;;;4980709;28;87766;-81
2022/04/09 09:52:01;;;;;;;;;;;20.30;56.50;;;;;;4980139;28;87768;-82
2022/04/09 09:54:27;;;;;;;77.72;21.40;;;20.30;56.90;;;;;;4981961;28;88003;-83
2022/04/09 09:56:56;;;;;;;75.85;19.45;;;20.30;56.20;;;;;;4985800;28;88022;-79
2022/04/09 09:59:23;;;;;;;71.18;19.73;;;20.30;56.80;;;;;;4981508;28;87271;-81
2022/04/09 10:01:51;;;;;;;68.05;19.95;;;20.40;57.00;;;;;;4986788;28;88096;-81
2022/04/09 10:04:17;;;;;;;57.55;18.33;;;20.30;57.40;;;;;;4979905;28;87647;-81
2022/04/09 10:06:43;;;;;;;66.72;21.15;;;20.30;57.80;;;;;;4981202;28;88426;-81
2022/04/09 10:09:13;;;;;;;56.38;17.90;;;20.30;58.10;;;;;;4979126;28;88134;-80
2022/04/09 10:11:49;;;;;;;64.53;18.95;;;20.30;58.50;;;;;;4989262;28;87719;-81
2022/04/09 10:14:20;;;;;;;56.13;17.48;;;20.40;58.60;;;;;;4981696;28;88663;-82
2022/04/09 10:16:54;;;;;;;58.30;16.73;;;20.30;58.80;;;;;;4982535;28;87518;-80
2022/04/09 10:19:23;;;;;;;59.80;17.42;;;20.40;58.90;;;;;;4980052;28;89400;-79
2022/04/09 10:21:50;;;;;;;53.90;16.52;;;20.40;58.80;;;;;;4984186;28;87883;-80
2022/04/09 10:24:19;;;;;;;56.13;17.38;;;20.40;58.40;;;;;;4986693;28;86842;-80
2022/04/09 10:26:45;;;;;;;53.40;14.50;;;20.40;58.20;;;;;;4980755;28;90853;-80
2022/04/09 10:29:11;;;;;;;55.50;15.85;;;20.40;56.10;;;;;;4981696;28;87695;-81
2022/04/09 10:31:39;;;;;;;50.83;14.00;;;20.40;56.00;;;;;;4979200;28;88804;-80
2022/04/09 10:34:07;;;;;;;44.17;13.35;;;20.40;56.50;;;;;;4976272;28;87878;-82
2022/04/09 10:36:45;;;;;;;42.85;12.85;;;20.40;56.30;;;;;;4975069;28;88296;-81
2022/04/09 10:39:38;;;;;;;47.08;13.10;;;20.40;56.20;;;;;;4974891;28;87774;-82
2022/04/09 10:42:08;;;;;;;41.30;11.82;;;20.40;56.00;;;;;;4978700;28;87916;-83
2022/04/09 10:44:50;;;;;;;44.13;12.98;;;20.40;55.60;;;;;;4983066;28;88129;-82
2022/04/09 10:47:16;;;;;;;47.30;12.38;;;20.40;55.40;;;;;;4974491;28;87576;-83
2022/04/09 10:50:10;;;;;;;39.75;12.25;;;20.40;55.40;;;;;;4975386;28;87717;-81
2022/04/09 10:52:38;;;;;;;39.38;11.82;;;20.40;55.20;;;;;;4974461;28;87213;-83
2022/04/09 10:55:10;;;;;;;34.58;11.10;;;20.40;55.20;;;;;;4979254;28;87990;-82
2022/04/09 10:57:44;;;;;;;38.88;11.48;;;20.30;55.10;;;;;;4984008;28;90558;-83
2022/04/09 11:00:43;;;;;;;34.63;10.90;;;20.30;55.30;;;;;;4981204;28;88309;-83
2022/04/09 11:03:31;;;;;;;37.58;10.77;;;20.30;55.70;;;;;;4983216;28;88201;-82
2022/04/09 11:06:40;;;;;;;34.72;11.32;;;20.30;54.90;;;;;;4983570;28;87930;-84
2022/04/09 11:09:09;;;;;;;34.55;10.20;;;20.30;55.00;;;;;;4977503;28;88930;-84
2022/04/09 11:11:37;;;;;;;36.42;10.63;;;20.30;55.10;;;;;;4993780;28;89645;-83
2022/04/09 11:14:03;;;;;;;41.92;12.05;;;20.40;55.30;;;;;;4995380;28;86933;-80
2022/04/09 11:16:36;;;;;;;32.55;10.18;;;20.40;55.30;;;;;;4983230;28;87536;-82
2022/04/09 11:19:03;;;;;;;29.30;8.68;;;20.40;55.30;;;;;;5005809;28;90523;-84
2022/04/09 11:21:30;;;;;;;28.77;8.75;;;20.40;51.00;;;;;;4977704;28;88242;-82
2022/04/09 11:24:07;;;;;;;31.73;9.27;;;20.30;51.10;;;;;;4987974;28;88144;-82
2022/04/09 11:26:33;;;;;;;43.60;9.63;;;20.30;51.10;;;;;;4970848;28;88893;-83
2022/04/09 11:29:08;;;;;;;46.75;10.07;;;20.30;51.30;;;;;;4951520;28;88203;-84
2022/04/09 11:31:43;;;;;;;36.85;8.90;;;20.30;50.90;;;;;;4951038;28;87995;-84
2022/04/09 11:34:09;;;;;;;33.00;8.50;;;20.30;51.60;;;;;;4951067;28;87842;-83
2022/04/09 11:36:34;;;;;;;39.15;9.43;;;20.30;51.70;;;;;;4963660;28;87953;-82
2022/04/09 11:39:00;;;;;;;31.92;8.50;;;20.30;52.60;;;;;;4949638;28;88209;-82
2022/04/09 11:41:26;;;;;;;33.28;8.88;;;20.30;53.20;;;;;;4950710;28;87262;-80
2022/04/09 11:43:52;;;;;;;29.85;7.97;;;20.30;53.70;;;;;;4952055;28;88139;-80
2022/04/09 11:46:18;;;;;;;33.00;8.68;;;20.30;53.70;;;;;;4951222;28;87389;-82
2022/04/09 11:48:57;;;;;;;31.00;9.05;;;20.30;53.90;;;;;;4950440;28;88985;-80
2022/04/09 11:51:23;;;;;;;;;;;20.30;53.90;;;;;;4951614;28;88795;-81
2022/04/09 11:53:48;;;;;;;31.52;7.90;;;20.40;55.00;;;;;;4952827;28;87677;-81
2022/04/09 11:56:14;;;;;;;23.85;7.35;;;20.40;54.40;;;;;;4950989;28;87648;-81
2022/04/09 11:58:39;;;;;;;29.60;8.25;;;20.40;54.60;;;;;;4949319;28;88237;-83
2022/04/09 12:01:09;;;;;;;29.30;8.07;;;20.40;54.60;;;;;;4948236;28;87319;-81
2022/04/09 12:03:57;;;;;;;23.75;7.75;;;20.30;54.50;;;;;;4952116;28;87810;-81
2022/04/09 12:06:22;;;;;;;29.30;7.95;;;20.40;54.40;;;;;;4949828;28;87525;-83
2022/04/09 12:08:48;;;;;;;25.30;7.85;;;20.30;54.40;;;;;;4951754;28;88065;-80
2022/04/09 12:11:15;;;;;;;27.05;7.43;;;20.30;54.40;;;;;;4950040;28;88365;-81
2022/04/09 12:13:42;;;;;;;24.92;8.13;;;20.30;54.40;;;;;;4948117;28;88275;-83
2022/04/09 12:16:11;;;;;;;28.23;7.88;;;20.30;54.30;;;;;;4946951;28;88574;-80
2022/04/09 12:18:37;;;;;;;26.33;7.97;;;20.40;54.10;;;;;;4997414;22;88199;-68
2022/04/09 12:21:38;;;;;;;23.30;8.13;;;20.40;54.40;;;;;;4945258;28;91131;-66
2022/04/09 12:24:09;;;;;;;27.45;7.43;;;20.40;55.10;;;;;;4945548;28;87839;-65
2022/04/09 12:26:45;;;;;;;18.95;6.80;;;20.40;54.80;;;;;;4946722;28;86931;-65
2022/04/09 12:29:13;;;;;;;31.63;7.40;;;20.40;54.90;;;;;;4947974;28;89227;-66
2022/04/09 12:31:44;;;;;;;20.60;7.30;;;20.40;55.30;;;;;;4949047;28;87438;-66
2022/04/09 12:34:11;;;;;;;17.27;7.00;;;20.40;55.70;;;;;;4947895;28;87385;-65
2022/04/09 12:36:38;;;;;;;22.23;7.18;;;20.50;56.60;;;;;;4947656;28;87414;-66
2022/04/09 12:39:26;;;;;;;19.73;6.30;;;20.50;55.80;;;;;;4946762;28;89690;-65
2022/04/09 12:41:54;;;;;;;22.52;6.32;;;20.50;56.10;;;;;;4947643;28;88830;-65
2022/04/09 12:44:30;;;;;;;25.48;7.05;;;20.60;55.80;;;;;;4945528;28;88650;-65